Saint-Georges-De-Cacouna, Canada
Current Conditions -  °F | °C
As of 1:53 PM on Friday 21 Nov 2014 (Local Time) from KFVE Reporting Station
Overcast Overcast  
Wind Chill:   Ceiling: 3900
Heat Index: 19°   Visibility: 10mi
Dew Point:   Wind: 17mph
Humidity: 59%   Direction: 310°NW
Pressure: 29.85"   Gusts: 30mph
Location:  47.92°N, 69.5°W
Report Text: KFVE 211853Z AUTO 31015G26KT 10SM OVC039 M07/M14 A2985 RMK AO2 PK WND 30027/1811 SLP125 T10721139
Loading
Personal Weather Stations






























Interactive Weather Map New forecast layout! Learn more

10-Day Weather Forecast

Advertisements
Track Severe Weather on mobile